createdAt,value
2019-03-31T00:02:08.907Z,44.26
2019-03-31T00:05:15.381Z,44.60
2019-03-31T00:08:21.653Z,44.44
2019-03-31T00:11:27.912Z,45.85
2019-03-31T00:14:34.207Z,45.32
2019-03-31T00:17:40.448Z,46.24
2019-03-31T00:20:46.681Z,46.43
2019-03-31T00:23:52.932Z,44.54
2019-03-31T00:26:59.347Z,45.04
2019-03-31T00:30:05.953Z,46.72
2019-03-31T00:33:13.397Z,47.49
2019-03-31T00:36:19.636Z,46.14
2019-03-31T00:39:25.865Z,44.70
2019-03-31T00:42:32.204Z,43.95
2019-03-31T00:45:38.703Z,43.65
2019-03-31T00:48:44.939Z,44.12
2019-03-31T00:51:51.190Z,44.10
2019-03-31T00:54:57.453Z,46.36
2019-03-31T00:58:03.670Z,45.49
2019-03-31T01:01:36.272Z,46.08
2019-03-31T01:04:39.387Z,47.11
2019-03-31T01:07:45.794Z,46.11
2019-03-31T01:10:52.010Z,45.71
2019-03-31T01:13:58.638Z,44.83
2019-03-31T01:17:07.088Z,45.73
2019-03-31T01:20:13.493Z,45.30
2019-03-31T01:23:20.867Z,45.12
2019-03-31T01:26:27.207Z,45.88
2019-03-31T01:29:33.597Z,46.21
2019-03-31T01:32:40.376Z,46.07
2019-03-31T01:35:46.610Z,46.17
2019-03-31T01:38:52.825Z,45.57
2019-03-31T01:41:59.219Z,46.71
2019-03-31T01:45:05.714Z,45.89
2019-03-31T01:48:11.941Z,45.46
2019-03-31T01:51:19.226Z,46.08
2019-03-31T01:54:25.444Z,47.18
2019-03-31T01:57:31.766Z,48.44
2019-03-31T02:00:41.261Z,46.71
2019-03-31T02:03:47.783Z,46.13
2019-03-31T02:06:54.102Z,45.92
2019-03-31T02:10:00.373Z,45.92
2019-03-31T02:13:06.676Z,45.68
2019-03-31T02:16:12.934Z,45.85
2019-03-31T02:19:19.145Z,46.09
2019-03-31T02:22:25.410Z,45.33
2019-03-31T02:25:31.636Z,44.97
2019-03-31T02:28:38.945Z,46.23
2019-03-31T02:31:45.213Z,47.52
2019-03-31T02:34:51.457Z,46.56
2019-03-31T02:37:57.748Z,47.28
2019-03-31T02:41:04.052Z,48.20
2019-03-31T02:44:10.302Z,45.95
2019-03-31T02:47:16.555Z,45.25
2019-03-31T02:50:51.096Z,47.52
2019-03-31T02:53:57.492Z,46.44
2019-03-31T02:57:04.709Z,45.71
2019-03-31T03:00:11.054Z,46.67
2019-03-31T03:03:18.113Z,46.87
2019-03-31T03:06:26.329Z,46.31
2019-03-31T03:09:35.936Z,46.74
2019-03-31T03:12:45.857Z,47.63
2019-03-31T03:16:29.024Z,46.44
2019-03-31T03:19:35.391Z,45.50
2019-03-31T03:22:41.665Z,45.08
2019-03-31T03:25:55.764Z,45.09
2019-03-31T03:28:55.985Z,44.76
2019-03-31T03:32:02.347Z,44.68
2019-03-31T03:35:08.737Z,44.64
2019-03-31T03:38:14.983Z,44.34
2019-03-31T03:41:21.201Z,44.79
2019-03-31T03:44:27.447Z,46.14
2019-03-31T03:47:33.719Z,48.13
2019-03-31T03:50:39.998Z,51.89
2019-03-31T03:53:46.348Z,49.09
2019-03-31T03:56:52.552Z,48.56
2019-03-31T03:59:58.763Z,47.53
2019-03-31T04:03:05.144Z,46.35
2019-03-31T04:06:11.418Z,45.79
2019-03-31T04:09:17.647Z,45.27
2019-03-31T04:12:24.919Z,44.99
2019-03-31T04:15:31.198Z,44.81
2019-03-31T04:18:37.490Z,44.86
2019-03-31T04:21:43.771Z,44.85
2019-03-31T04:24:49.963Z,46.57
2019-03-31T04:27:56.222Z,48.06
2019-03-31T04:31:02.504Z,48.37
2019-03-31T04:34:08.764Z,48.43
2019-03-31T04:37:15.105Z,47.09
2019-03-31T04:40:21.427Z,46.72
2019-03-31T04:43:27.636Z,47.44
2019-03-31T04:46:34.015Z,46.21
2019-03-31T04:49:40.413Z,45.69
2019-03-31T04:52:46.665Z,45.79
2019-03-31T04:55:52.967Z,45.73
2019-03-31T04:58:59.176Z,45.58
2019-03-31T05:02:05.515Z,45.35
2019-03-31T05:05:11.780Z,44.89
2019-03-31T05:08:18.001Z,46.61
2019-03-31T05:11:24.326Z,46.48
2019-03-31T05:14:30.527Z,48.61
2019-03-31T05:17:36.769Z,48.56
2019-03-31T05:20:42.975Z,47.81
2019-03-31T05:23:49.219Z,46.41
2019-03-31T05:26:55.457Z,45.75
2019-03-31T05:30:01.686Z,45.02
2019-03-31T05:33:09.063Z,44.92
2019-03-31T05:36:15.427Z,45.40
2019-03-31T05:39:21.650Z,43.93
2019-03-31T05:42:27.986Z,43.34
2019-03-31T05:45:34.227Z,42.99
2019-03-31T05:48:40.445Z,42.41
2019-03-31T05:51:46.733Z,41.95
2019-03-31T05:54:52.949Z,40.98
2019-03-31T05:57:59.270Z,40.22
2019-03-31T06:01:05.561Z,40.08
2019-03-31T06:04:12.125Z,40.35
2019-03-31T06:07:18.371Z,39.35
2019-03-31T06:10:24.904Z,39.14
2019-03-31T06:13:31.127Z,38.79
2019-03-31T06:16:37.518Z,38.90
2019-03-31T06:19:43.739Z,38.30
2019-03-31T06:22:49.997Z,37.82
2019-03-31T06:25:56.201Z,37.90
2019-03-31T06:29:02.443Z,37.77
2019-03-31T06:32:08.698Z,37.18
2019-03-31T06:35:15.009Z,37.00
2019-03-31T06:38:21.331Z,36.78
2019-03-31T06:41:27.548Z,36.79
2019-03-31T06:44:33.810Z,36.08
2019-03-31T06:47:40.121Z,35.82
2019-03-31T06:50:46.387Z,35.57
2019-03-31T06:53:52.770Z,35.47
2019-03-31T06:56:59.170Z,35.87
2019-03-31T07:00:06.198Z,35.12
2019-03-31T07:03:12.505Z,35.23
2019-03-31T07:06:18.835Z,34.72
2019-03-31T07:09:25.067Z,33.93
2019-03-31T07:12:31.414Z,34.88
2019-03-31T07:15:37.639Z,34.35
2019-03-31T07:18:43.918Z,33.57
2019-03-31T07:21:50.274Z,33.77
2019-03-31T07:24:56.913Z,33.92
2019-03-31T07:28:03.149Z,33.25
2019-03-31T07:31:09.564Z,33.23
2019-03-31T07:34:15.775Z,33.58
2019-03-31T07:37:22.136Z,33.08
2019-03-31T07:40:28.511Z,34.22
2019-03-31T07:43:34.695Z,34.82
2019-03-31T07:46:40.998Z,33.95
2019-03-31T07:49:47.694Z,33.94
2019-03-31T07:52:54.101Z,34.80
2019-03-31T07:56:00.372Z,33.95
2019-03-31T07:59:06.651Z,33.67
2019-03-31T08:02:12.983Z,35.40
2019-03-31T08:05:32.345Z,35.29
2019-03-31T08:08:28.209Z,33.63
2019-03-31T08:11:34.518Z,32.76
2019-03-31T08:14:40.841Z,32.09
2019-03-31T08:17:48.468Z,32.41
2019-03-31T08:20:54.728Z,32.07
2019-03-31T08:24:01.024Z,31.29
2019-03-31T08:27:07.757Z,31.60
2019-03-31T08:30:16.472Z,30.65
2019-03-31T08:33:22.721Z,30.19
2019-03-31T08:36:29.018Z,29.75
2019-03-31T08:39:35.365Z,29.49
2019-03-31T08:42:41.589Z,29.76
2019-03-31T08:45:47.950Z,28.57
2019-03-31T08:48:54.174Z,28.06
2019-03-31T08:52:00.450Z,28.06
2019-03-31T08:55:07.763Z,27.54
2019-03-31T08:58:14.031Z,26.93
2019-03-31T09:01:20.662Z,27.13
2019-03-31T09:04:26.873Z,26.68
2019-03-31T09:07:33.124Z,26.76
2019-03-31T09:10:39.362Z,26.90
2019-03-31T09:13:45.648Z,27.27
2019-03-31T09:16:51.963Z,26.74
2019-03-31T09:19:58.172Z,26.43
2019-03-31T09:23:04.530Z,26.46
2019-03-31T09:26:11.004Z,26.47
2019-03-31T09:29:17.534Z,25.95
2019-03-31T09:32:24.185Z,25.21
2019-03-31T09:35:30.420Z,25.78
2019-03-31T09:38:36.779Z,24.97
2019-03-31T09:41:43.080Z,25.32
2019-03-31T09:44:49.630Z,24.93
2019-03-31T09:47:55.968Z,24.71
2019-03-31T09:51:02.221Z,24.44
2019-03-31T09:54:08.680Z,24.11
2019-03-31T09:57:14.974Z,24.36
2019-03-31T10:00:32.258Z,24.93
2019-03-31T10:03:38.591Z,25.26
2019-03-31T10:06:45.081Z,25.77
2019-03-31T10:09:51.822Z,25.46
2019-03-31T10:12:58.195Z,26.73
2019-03-31T10:16:04.415Z,24.97
2019-03-31T10:19:10.666Z,25.58
2019-03-31T10:22:16.929Z,25.00
2019-03-31T10:25:23.135Z,25.82
2019-03-31T10:28:29.405Z,27.42
2019-03-31T10:31:35.679Z,26.38
2019-03-31T10:34:41.933Z,25.79
2019-03-31T10:37:48.251Z,25.78
2019-03-31T10:40:54.487Z,25.75
2019-03-31T10:44:00.730Z,25.30
2019-03-31T10:47:07.151Z,24.69
2019-03-31T10:50:13.632Z,24.96
2019-03-31T10:53:19.867Z,24.83
2019-03-31T10:56:26.084Z,25.02
2019-03-31T10:59:32.319Z,24.83
2019-03-31T11:02:38.607Z,24.44
2019-03-31T11:05:44.827Z,24.64
2019-03-31T11:08:51.227Z,24.40
2019-03-31T11:11:57.495Z,24.90
2019-03-31T11:15:03.938Z,24.01
2019-03-31T11:18:10.228Z,24.69
2019-03-31T11:21:30.686Z,24.81
2019-03-31T11:24:36.947Z,24.02
2019-03-31T11:27:43.964Z,24.39
2019-03-31T11:30:50.525Z,24.09
2019-03-31T11:33:56.738Z,24.22
2019-03-31T11:37:13.483Z,24.46
2019-03-31T11:40:11.334Z,25.87
2019-03-31T11:43:17.658Z,25.66
2019-03-31T11:46:23.870Z,24.79
2019-03-31T11:49:30.232Z,23.80
2019-03-31T11:52:36.655Z,23.66
2019-03-31T11:55:42.869Z,24.00
2019-03-31T11:58:49.129Z,23.71
2019-03-31T12:01:55.418Z,24.69
2019-03-31T12:05:01.634Z,24.38
2019-03-31T12:08:07.859Z,24.67
2019-03-31T12:11:14.156Z,24.41
2019-03-31T12:14:20.491Z,24.46
2019-03-31T12:17:26.757Z,24.30
2019-03-31T12:20:33.064Z,24.51
2019-03-31T12:23:39.422Z,23.94
2019-03-31T12:26:45.629Z,23.88
2019-03-31T12:29:51.924Z,24.27
2019-03-31T12:32:58.402Z,24.66
2019-03-31T12:36:06.653Z,24.75
2019-03-31T12:39:12.925Z,24.24
2019-03-31T12:42:19.122Z,25.33
2019-03-31T12:45:25.465Z,25.65
2019-03-31T12:48:31.902Z,25.80
2019-03-31T12:51:38.314Z,25.07
2019-03-31T12:54:44.565Z,24.90
2019-03-31T12:57:52.046Z,24.92
2019-03-31T13:00:58.684Z,25.31
2019-03-31T13:04:04.884Z,25.44
2019-03-31T13:07:14.665Z,24.76
2019-03-31T13:10:19.107Z,24.46
2019-03-31T13:13:25.328Z,25.06
2019-03-31T13:16:31.540Z,25.17
2019-03-31T13:19:37.845Z,25.24
2019-03-31T13:22:45.881Z,25.57
2019-03-31T13:25:52.055Z,26.26
2019-03-31T13:28:58.462Z,26.10
2019-03-31T13:32:04.786Z,26.63
2019-03-31T13:35:11.133Z,26.32
2019-03-31T13:38:17.368Z,25.75
2019-03-31T13:41:23.607Z,25.20
2019-03-31T13:44:29.814Z,25.77
2019-03-31T13:47:37.182Z,25.62
2019-03-31T13:50:43.419Z,25.30
2019-03-31T13:53:49.651Z,25.12
2019-03-31T13:56:56.655Z,25.35
2019-03-31T14:00:03.569Z,25.04
2019-03-31T14:03:10.023Z,25.36
2019-03-31T14:06:17.772Z,25.39
2019-03-31T14:09:24.027Z,26.03
2019-03-31T14:12:30.276Z,26.01
2019-03-31T14:15:36.681Z,26.11
2019-03-31T14:18:44.028Z,25.89
2019-03-31T14:21:50.291Z,25.80
2019-03-31T14:24:56.511Z,25.86
2019-03-31T14:28:02.763Z,26.04
2019-03-31T14:31:08.967Z,25.93
2019-03-31T14:34:15.386Z,26.16
2019-03-31T14:37:21.685Z,25.89
2019-03-31T14:40:27.912Z,26.14
2019-03-31T14:43:34.145Z,26.61
2019-03-31T14:46:40.355Z,26.57
2019-03-31T14:49:46.651Z,25.99
2019-03-31T14:52:52.829Z,26.57
2019-03-31T14:55:59.072Z,26.89
2019-03-31T14:59:05.503Z,26.86
2019-03-31T15:02:11.889Z,27.16
2019-03-31T15:05:18.132Z,27.03
2019-03-31T15:08:24.406Z,27.35
2019-03-31T15:11:30.690Z,27.11
2019-03-31T15:14:36.875Z,27.25
2019-03-31T15:17:43.174Z,27.30
2019-03-31T15:20:49.350Z,27.78
2019-03-31T15:23:55.592Z,28.12
2019-03-31T15:27:01.988Z,28.05
2019-03-31T15:30:08.634Z,28.23
2019-03-31T15:33:14.859Z,27.67
2019-03-31T15:36:21.166Z,27.18
2019-03-31T15:39:27.412Z,27.45
2019-03-31T15:42:33.669Z,27.61
2019-03-31T15:45:39.938Z,27.60
2019-03-31T15:48:46.207Z,28.27
2019-03-31T15:51:52.494Z,28.68
2019-03-31T15:54:58.761Z,28.46
2019-03-31T15:58:05.563Z,29.02
2019-03-31T16:01:13.544Z,29.12
2019-03-31T16:04:19.810Z,29.37
2019-03-31T16:07:25.977Z,29.38
2019-03-31T16:10:31.679Z,29.50
2019-03-31T16:13:37.346Z,29.53
2019-03-31T16:16:43.034Z,29.92
2019-03-31T16:19:48.835Z,30.55
2019-03-31T16:22:54.493Z,30.89
2019-03-31T16:26:00.190Z,31.08
2019-03-31T16:29:06.050Z,31.17
2019-03-31T16:32:11.732Z,31.47
2019-03-31T16:35:17.452Z,31.85
2019-03-31T16:38:25.676Z,31.92
2019-03-31T16:41:30.535Z,32.37
2019-03-31T16:44:36.347Z,32.50
2019-03-31T16:47:42.043Z,32.71
2019-03-31T16:50:47.898Z,32.99
2019-03-31T16:53:53.563Z,32.80
2019-03-31T16:56:59.619Z,32.80
2019-03-31T17:00:06.246Z,32.79
2019-03-31T17:03:13.155Z,32.79
2019-03-31T17:06:18.990Z,33.31
2019-03-31T17:09:24.685Z,33.31
2019-03-31T17:12:30.457Z,36.18
2019-03-31T17:15:36.184Z,32.95
2019-03-31T17:18:43.168Z,34.04
2019-03-31T17:21:48.848Z,34.04
2019-03-31T17:24:54.588Z,33.65
2019-03-31T17:28:00.406Z,34.48
2019-03-31T17:31:06.459Z,34.48
2019-03-31T17:34:12.155Z,33.93
2019-03-31T17:37:17.963Z,34.20
2019-03-31T17:40:23.650Z,35.12
2019-03-31T17:43:29.353Z,34.32
2019-03-31T17:46:35.102Z,35.18
2019-03-31T17:49:41.122Z,34.17
2019-03-31T17:52:46.892Z,35.92
2019-03-31T17:55:53.677Z,34.77
2019-03-31T17:59:00.655Z,34.19
2019-03-31T18:02:06.681Z,34.30
2019-03-31T18:05:12.638Z,34.55
2019-03-31T18:08:18.384Z,34.64
2019-03-31T18:11:24.170Z,34.82
2019-03-31T18:14:29.880Z,35.16
2019-03-31T18:17:35.653Z,35.74
2019-03-31T18:20:41.377Z,35.85
2019-03-31T18:23:47.144Z,34.72
2019-03-31T18:26:52.887Z,33.92
2019-03-31T18:29:58.635Z,33.70
2019-03-31T18:33:04.525Z,33.04
2019-03-31T18:36:10.290Z,33.04
2019-03-31T18:39:16.049Z,32.50
2019-03-31T18:42:21.759Z,34.28
2019-03-31T18:45:27.485Z,32.43
2019-03-31T18:48:33.289Z,32.21
2019-03-31T18:51:39.041Z,32.61
2019-03-31T18:55:06.612Z,33.28
2019-03-31T18:58:20.185Z,31.97
2019-03-31T19:01:44.767Z,32.50
2019-03-31T19:05:03.787Z,32.58
2019-03-31T19:08:25.195Z,33.66
2019-03-31T19:11:34.961Z,33.79
2019-03-31T19:15:02.402Z,33.36
2019-03-31T19:18:15.286Z,33.59
2019-03-31T19:21:38.398Z,33.58
2019-03-31T19:25:06.055Z,33.54
2019-03-31T19:28:33.500Z,33.84
2019-03-31T19:31:58.374Z,33.63
2019-03-31T19:35:35.046Z,32.87
2019-03-31T19:39:11.791Z,33.33
2019-03-31T19:42:34.920Z,33.78
2019-03-31T19:45:52.152Z,34.28
2019-03-31T19:49:12.415Z,35.08
2019-03-31T19:52:52.008Z,36.04
2019-03-31T19:56:22.521Z,36.68
2019-03-31T19:59:52.952Z,36.68
2019-03-31T20:03:13.403Z,37.54
2019-03-31T20:06:42.431Z,38.03
2019-03-31T20:10:04.725Z,38.29
2019-03-31T20:13:21.043Z,38.09
2019-03-31T20:16:52.834Z,38.66
2019-03-31T20:20:09.555Z,38.09
2019-03-31T20:23:34.312Z,38.63
2019-03-31T20:26:54.886Z,38.70
2019-03-31T20:30:22.542Z,38.73
2019-03-31T20:33:41.255Z,38.60
2019-03-31T20:37:10.182Z,39.51
2019-03-31T20:40:22.649Z,39.20
2019-03-31T20:43:44.289Z,39.38
2019-03-31T20:46:50.159Z,39.47
2019-03-31T20:49:55.897Z,39.67
2019-03-31T20:53:01.562Z,40.15
2019-03-31T20:56:07.296Z,40.22
2019-03-31T20:59:13.070Z,40.08
2019-03-31T21:02:18.863Z,40.20
2019-03-31T21:05:24.580Z,40.29
2019-03-31T21:08:30.321Z,39.99
2019-03-31T21:11:36.084Z,40.74
2019-03-31T21:14:41.860Z,40.54
2019-03-31T21:17:47.593Z,40.42
2019-03-31T21:20:53.293Z,40.78
2019-03-31T21:23:58.995Z,40.74
2019-03-31T21:27:04.660Z,40.55
2019-03-31T21:30:10.718Z,41.15
2019-03-31T21:33:16.390Z,41.96
2019-03-31T21:36:22.089Z,41.63
2019-03-31T21:39:27.757Z,41.13
2019-03-31T21:42:33.498Z,41.31
2019-03-31T21:45:39.369Z,41.82
2019-03-31T21:48:45.087Z,41.82
2019-03-31T21:51:50.791Z,41.99
2019-03-31T21:54:56.617Z,42.20
2019-03-31T21:58:02.333Z,41.24
2019-03-31T22:01:08.122Z,41.34
2019-03-31T22:04:15.112Z,41.93
2019-03-31T22:07:20.879Z,42.61
2019-03-31T22:10:26.562Z,42.14
2019-03-31T22:13:32.383Z,42.01
2019-03-31T22:16:38.183Z,41.84
2019-03-31T22:19:43.908Z,41.12
2019-03-31T22:22:49.577Z,41.57
2019-03-31T22:25:55.271Z,41.53
2019-03-31T22:29:00.955Z,41.60
2019-03-31T22:32:06.681Z,42.11
2019-03-31T22:35:12.472Z,41.84
2019-03-31T22:38:18.141Z,41.11
2019-03-31T22:41:23.948Z,40.70
2019-03-31T22:44:29.878Z,40.75
2019-03-31T22:47:36.681Z,40.64
2019-03-31T22:50:42.376Z,40.58
2019-03-31T22:53:48.073Z,41.26
2019-03-31T22:56:53.748Z,41.59
2019-03-31T22:59:59.503Z,41.33
2019-03-31T23:03:05.265Z,41.38
2019-03-31T23:06:10.950Z,41.75
2019-03-31T23:09:16.677Z,42.95
2019-03-31T23:12:22.350Z,42.40
2019-03-31T23:15:28.081Z,41.23
2019-03-31T23:18:33.888Z,41.04
2019-03-31T23:21:39.668Z,42.29
2019-03-31T23:24:45.348Z,41.86
2019-03-31T23:27:51.041Z,43.26
2019-03-31T23:30:56.728Z,42.82
2019-03-31T23:34:02.415Z,44.36
2019-03-31T23:37:08.104Z,44.99
2019-03-31T23:40:13.916Z,43.69
2019-03-31T23:43:19.683Z,44.06
2019-03-31T23:46:25.345Z,44.61
2019-03-31T23:49:31.108Z,43.02
2019-03-31T23:52:36.850Z,42.23
2019-03-31T23:55:42.612Z,45.57
2019-03-31T23:58:48.292Z,44.00
